createdAt,value
2022-07-31T00:00:27.975Z,15.40
2022-07-31T00:10:33.024Z,15.30
2022-07-31T00:20:36.783Z,15.30
2022-07-31T00:30:41.520Z,15.30
2022-07-31T00:40:49.061Z,15.20
2022-07-31T00:50:54.076Z,15.20
2022-07-31T01:00:57.477Z,15.20
2022-07-31T01:11:08.848Z,15.20
2022-07-31T01:21:22.557Z,15.20
2022-07-31T01:31:35.142Z,15.20
2022-07-31T01:41:43.984Z,15.20
2022-07-31T01:51:50.770Z,15.20
2022-07-31T02:01:57.327Z,15.20
2022-07-31T02:12:04.505Z,15.20
2022-07-31T02:22:13.341Z,15.20
2022-07-31T02:32:18.910Z,15.10
2022-07-31T02:42:24.616Z,15.10
2022-07-31T02:52:30.600Z,15.00
2022-07-31T03:02:34.674Z,15.00
2022-07-31T03:12:51.640Z,15.00
2022-07-31T03:22:55.552Z,14.90
2022-07-31T03:33:03.453Z,14.80
2022-07-31T03:43:09.076Z,14.80
2022-07-31T03:53:14.477Z,14.90
2022-07-31T04:03:21.149Z,14.90
2022-07-31T04:13:32.950Z,14.90
2022-07-31T04:23:36.754Z,15.00
2022-07-31T04:34:00.105Z,15.00
2022-07-31T04:44:03.555Z,15.00
2022-07-31T04:54:24.144Z,15.00
2022-07-31T05:04:28.665Z,15.00
2022-07-31T05:14:33.813Z,15.00
2022-07-31T05:24:37.366Z,14.90
2022-07-31T05:34:44.730Z,14.90
2022-07-31T05:44:48.500Z,14.80
2022-07-31T05:54:53.199Z,14.90
2022-07-31T06:05:15.425Z,14.90
2022-07-31T06:15:22.177Z,14.90
2022-07-31T06:25:27.065Z,15.00
2022-07-31T06:35:37.207Z,15.20
2022-07-31T06:46:00.478Z,15.40
2022-07-31T06:56:34.682Z,15.50
2022-07-31T07:06:38.102Z,15.30
2022-07-31T07:16:44.174Z,15.30
2022-07-31T07:26:47.759Z,15.20
2022-07-31T07:36:52.674Z,15.30
2022-07-31T07:47:02.792Z,15.30
2022-07-31T07:57:09.731Z,15.30
2022-07-31T08:07:43.579Z,15.40
2022-07-31T08:18:07.645Z,15.50
2022-07-31T08:28:14.886Z,15.20
2022-07-31T08:38:29.429Z,15.00
2022-07-31T08:48:53.479Z,14.90
2022-07-31T08:58:58.532Z,14.90
2022-07-31T09:09:02.010Z,15.20
2022-07-31T09:19:52.218Z,15.40
2022-07-31T09:29:38.223Z,15.60
2022-07-31T09:39:52.319Z,15.70
2022-07-31T09:50:14.942Z,15.70
2022-07-31T10:00:19.947Z,15.60
2022-07-31T10:10:24.222Z,15.70
2022-07-31T10:20:39.621Z,15.90
2022-07-31T10:31:16.134Z,15.70
2022-07-31T10:41:32.486Z,15.80
2022-07-31T10:51:47.304Z,16.20
2022-07-31T11:02:12.432Z,16.30
2022-07-31T11:12:39.115Z,16.40
2022-07-31T11:23:01.234Z,16.40
2022-07-31T11:33:04.630Z,16.30
2022-07-31T11:43:25.740Z,16.20
2022-07-31T11:53:29.646Z,16.00
2022-07-31T12:03:37.564Z,15.80
2022-07-31T12:13:40.971Z,15.90
2022-07-31T12:23:49.331Z,16.00
2022-07-31T12:33:52.735Z,16.00
2022-07-31T12:44:09.985Z,16.40
2022-07-31T12:54:18.549Z,16.70
2022-07-31T13:04:23.243Z,16.10
2022-07-31T13:14:26.906Z,15.80
2022-07-31T13:24:31.634Z,15.60
2022-07-31T13:34:35.006Z,15.40
2022-07-31T13:46:13.231Z,15.30
2022-07-31T13:56:33.963Z,15.00
2022-07-31T14:06:41.305Z,15.00
2022-07-31T14:16:48.884Z,14.90
2022-07-31T14:26:52.454Z,15.00
2022-07-31T14:36:57.174Z,15.00
2022-07-31T14:47:00.605Z,15.00
2022-07-31T14:57:06.380Z,15.00
2022-07-31T15:07:33.624Z,15.10
2022-07-31T15:17:34.660Z,15.00
2022-07-31T15:27:37.995Z,15.00
2022-07-31T15:37:45.371Z,15.00
2022-07-31T15:47:49.813Z,15.00
2022-07-31T15:57:54.640Z,15.00
2022-07-31T16:08:29.418Z,15.10
2022-07-31T16:18:23.963Z,15.00
2022-07-31T16:28:27.314Z,15.00
2022-07-31T16:38:32.023Z,14.90
2022-07-31T16:48:35.478Z,14.80
2022-07-31T16:58:40.254Z,14.80
2022-07-31T17:08:43.944Z,14.80
2022-07-31T17:18:52.563Z,14.70
2022-07-31T17:28:59.113Z,14.70
2022-07-31T17:39:03.896Z,14.60
2022-07-31T17:49:08.426Z,14.60
2022-07-31T17:59:13.701Z,14.50
2022-07-31T18:09:20.467Z,14.50
2022-07-31T18:19:25.357Z,14.60
2022-07-31T18:29:28.764Z,14.60
2022-07-31T18:39:33.492Z,14.50
2022-07-31T18:51:01.467Z,14.50
2022-07-31T19:00:18.225Z,14.60
2022-07-31T19:10:29.266Z,14.60
2022-07-31T19:20:51.759Z,14.70
2022-07-31T19:30:59.583Z,14.70
2022-07-31T19:41:05.313Z,14.70
2022-07-31T19:51:08.814Z,14.70
2022-07-31T20:01:14.459Z,14.60
2022-07-31T20:11:18.328Z,14.80
2022-07-31T20:21:23.290Z,14.70
2022-07-31T20:31:29.756Z,14.90
2022-07-31T20:41:34.508Z,14.90
2022-07-31T20:51:37.990Z,14.90
2022-07-31T21:01:43.657Z,14.90
2022-07-31T21:11:46.996Z,15.00
2022-07-31T21:21:52.149Z,15.00
2022-07-31T21:31:57.549Z,15.00
2022-07-31T21:42:03.531Z,15.00
2022-07-31T21:52:08.510Z,14.90
2022-07-31T22:02:13.730Z,15.00
2022-07-31T22:12:17.464Z,15.00
2022-07-31T22:22:23.038Z,15.00
2022-07-31T22:32:26.884Z,14.90
2022-07-31T22:42:31.877Z,14.80
2022-07-31T22:52:36.705Z,14.80
2022-07-31T23:02:43.032Z,14.70
2022-07-31T23:12:46.477Z,14.70
2022-07-31T23:22:52.953Z,14.60
2022-07-31T23:32:56.365Z,14.50
2022-07-31T23:43:01.095Z,14.50
2022-07-31T23:53:04.460Z,14.30
